Time,TemperatureF,DewpointF,PressureIn,WindDirection,WindDirectionDegrees,WindSpeedMPH,WindSpeedGustMPH,Humidity,HourlyPrecipIn,Conditions,Clouds,dailyrainin,SoftwareType,DateUTC
2013-02-10 00:02:00,18.3,8.0,30.23,WNW,293,0.0,0.0,65,0.00,,,0.00,weatherlink.com 1.10,2013-02-10 05:02:00,
2013-02-10 00:18:00,18.3,8.0,30.23,WNW,283,0.0,0.0,64,0.00,,,0.00,weatherlink.com 1.10,2013-02-10 05:18:00,
2013-02-10 00:33:00,18.3,8.0,30.24,WSW,246,0.0,0.0,63,0.00,,,0.00,weatherlink.com 1.10,2013-02-10 05:33:00,
2013-02-10 00:48:00,18.3,8.0,30.24,West,273,0.0,0.0,64,0.00,,,0.00,weatherlink.com 1.10,2013-02-10 05:48:00,
2013-02-10 01:03:00,18.3,8.0,30.24,WNW,287,0.0,0.0,63,0.00,,,0.00,weatherlink.com 1.10,2013-02-10 06:03:00,
2013-02-10 01:18:00,17.3,7.0,30.24,West,276,0.0,0.0,64,0.00,,,0.00,weatherlink.com 1.10,2013-02-10 06:18:00,
2013-02-10 01:33:00,-999.0,-99.9,30.25,North,-999,-999.0,-999.0,-999,0.00,,,0.00,weatherlink.com 1.10,2013-02-10 06:33:00,
2013-02-10 01:48:00,-999.0,-99.9,30.25,North,-999,-999.0,-999.0,-999,0.00,,,0.00,weatherlink.com 1.10,2013-02-10 06:48:00,
2013-02-10 02:03:00,-999.0,-99.9,30.26,North,-999,-999.0,-999.0,-999,0.00,,,0.00,weatherlink.com 1.10,2013-02-10 07:03:00,
2013-02-10 02:18:00,-999.0,-99.9,30.27,North,-999,-999.0,-999.0,-999,0.00,,,0.00,weatherlink.com 1.10,2013-02-10 07:18:00,
2013-02-10 02:33:00,-999.0,-99.9,30.27,North,-999,-999.0,-999.0,-999,0.00,,,0.00,weatherlink.com 1.10,2013-02-10 07:33:00,
2013-02-10 02:48:00,-999.0,-99.9,30.28,North,-999,-999.0,-999.0,-999,0.00,,,0.00,weatherlink.com 1.10,2013-02-10 07:48:00,
2013-02-10 03:03:00,-999.0,-99.9,30.27,North,-999,-999.0,-999.0,-999,0.00,,,0.00,weatherlink.com 1.10,2013-02-10 08:03:00,
2013-02-10 03:18:00,-999.0,-99.9,30.28,North,-999,-999.0,-999.0,-999,0.00,,,0.00,weatherlink.com 1.10,2013-02-10 08:18:00,
2013-02-10 03:33:00,-999.0,-99.9,30.28,North,-999,-999.0,-999.0,-999,0.00,,,0.00,weatherlink.com 1.10,2013-02-10 08:33:00,
2013-02-10 03:48:00,-999.0,-99.9,30.29,North,-999,-999.0,-999.0,-999,0.00,,,0.00,weatherlink.com 1.10,2013-02-10 08:48:00,
2013-02-10 04:03:00,-999.0,-99.9,30.30,North,-999,-999.0,-999.0,-999,0.00,,,0.00,weatherlink.com 1.10,2013-02-10 09:03:00,
2013-02-10 04:18:00,-999.0,-99.9,30.31,North,-999,-999.0,-999.0,-999,0.00,,,0.00,weatherlink.com 1.10,2013-02-10 09:18:00,
2013-02-10 04:34:00,-999.0,-99.9,30.32,North,-999,-999.0,-999.0,-999,0.00,,,0.00,weatherlink.com 1.10,2013-02-10 09:34:00,
2013-02-10 04:49:00,-999.0,-99.9,30.32,North,-999,-999.0,-999.0,-999,0.00,,,0.00,weatherlink.com 1.10,2013-02-10 09:49:00,
2013-02-10 05:04:00,-999.0,-99.9,30.32,North,-999,-999.0,-999.0,-999,0.00,,,0.00,weatherlink.com 1.10,2013-02-10 10:04:00,
2013-02-10 05:19:00,-999.0,-99.9,30.32,North,-999,-999.0,-999.0,-999,0.00,,,0.00,weatherlink.com 1.10,2013-02-10 10:19:00,
2013-02-10 05:34:00,-999.0,-99.9,30.32,North,-999,-999.0,-999.0,-999,0.00,,,0.00,weatherlink.com 1.10,2013-02-10 10:34:00,
2013-02-10 05:49:00,-999.0,-99.9,30.33,North,-999,-999.0,-999.0,-999,0.00,,,0.00,weatherlink.com 1.10,2013-02-10 10:49:00,
2013-02-10 06:04:00,-999.0,-99.9,30.33,North,-999,-999.0,-999.0,-999,0.00,,,0.00,weatherlink.com 1.10,2013-02-10 11:04:00,
2013-02-10 06:19:00,-999.0,-99.9,30.34,North,-999,-999.0,-999.0,-999,0.00,,,0.00,weatherlink.com 1.10,2013-02-10 11:19:00,
2013-02-10 06:34:00,-999.0,-99.9,30.35,North,-999,-999.0,-999.0,-999,0.00,,,0.00,weatherlink.com 1.10,2013-02-10 11:34:00,
2013-02-10 06:49:00,-999.0,-99.9,30.36,North,-999,-999.0,-999.0,-999,0.00,,,0.00,weatherlink.com 1.10,2013-02-10 11:49:00,
2013-02-10 07:04:00,-999.0,-99.9,30.36,North,-999,-999.0,-999.0,-999,0.00,,,0.00,weatherlink.com 1.10,2013-02-10 12:04:00,
2013-02-10 07:19:00,-999.0,-99.9,30.38,North,-999,-999.0,-999.0,-999,0.00,,,0.00,weatherlink.com 1.10,2013-02-10 12:19:00,
2013-02-10 07:34:00,-999.0,-99.9,30.39,North,-999,-999.0,-999.0,-999,0.00,,,0.00,weatherlink.com 1.10,2013-02-10 12:34:00,
2013-02-10 07:49:00,-999.0,-99.9,30.39,North,-999,-999.0,-999.0,-999,0.00,,,0.00,weatherlink.com 1.10,2013-02-10 12:49:00,
2013-02-10 08:04:00,-999.0,-99.9,30.40,North,-999,-999.0,-999.0,-999,0.00,,,0.00,weatherlink.com 1.10,2013-02-10 13:04:00,
2013-02-10 08:20:00,-999.0,-99.9,30.39,North,-999,-999.0,-999.0,-999,0.00,,,0.00,weatherlink.com 1.10,2013-02-10 13:20:00,
2013-02-10 08:35:00,-999.0,-99.9,30.40,North,-999,-999.0,-999.0,-999,0.00,,,0.00,weatherlink.com 1.10,2013-02-10 13:35:00,
2013-02-10 08:50:00,-999.0,-99.9,30.39,North,-999,-999.0,-999.0,-999,0.00,,,0.00,weatherlink.com 1.10,2013-02-10 13:50:00,
2013-02-10 09:05:00,-999.0,-99.9,30.39,North,-999,-999.0,-999.0,-999,0.00,,,0.00,weatherlink.com 1.10,2013-02-10 14:05:00,
2013-02-10 09:20:00,-999.0,-99.9,30.40,North,-999,-999.0,-999.0,-999,0.00,,,0.00,weatherlink.com 1.10,2013-02-10 14:20:00,
2013-02-10 09:35:00,-999.0,-99.9,30.40,North,-999,-999.0,-999.0,-999,0.00,,,0.00,weatherlink.com 1.10,2013-02-10 14:35:00,
2013-02-10 09:50:00,-999.0,-99.9,30.40,North,-999,-999.0,-999.0,-999,0.00,,,0.00,weatherlink.com 1.10,2013-02-10 14:50:00,
2013-02-10 10:05:00,-999.0,-99.9,30.41,North,-999,-999.0,-999.0,-999,0.00,,,0.00,weatherlink.com 1.10,2013-02-10 15:05:00,
2013-02-10 10:20:00,27.4,10.0,30.41,West,271,0.0,0.0,49,0.00,,,0.00,weatherlink.com 1.10,2013-02-10 15:20:00,
2013-02-10 10:35:00,27.1,10.0,30.42,NW,315,0.0,0.0,48,0.00,,,0.00,weatherlink.com 1.10,2013-02-10 15:35:00,
2013-02-10 10:50:00,27.4,10.0,30.42,WNW,288,0.0,0.0,49,0.00,,,0.00,weatherlink.com 1.10,2013-02-10 15:50:00,
2013-02-10 11:05:00,27.9,11.0,30.43,WNW,294,0.0,1.0,50,0.00,,,0.00,weatherlink.com 1.10,2013-02-10 16:05:00,
2013-02-10 11:20:00,28.4,12.0,30.42,West,276,0.0,0.0,50,0.00,,,0.00,weatherlink.com 1.10,2013-02-10 16:20:00,
2013-02-10 11:35:00,29.2,13.0,30.42,WNW,297,0.0,1.0,50,0.00,,,0.00,weatherlink.com 1.10,2013-02-10 16:35:00,
2013-02-10 11:50:00,30.1,12.0,30.41,WNW,288,0.0,0.0,47,0.00,,,0.00,weatherlink.com 1.10,2013-02-10 16:50:00,
2013-02-10 12:05:00,30.7,13.0,30.40,WNW,302,0.0,0.0,48,0.00,,,0.00,weatherlink.com 1.10,2013-02-10 17:05:00,
2013-02-10 12:20:00,31.1,12.0,30.40,NW,308,0.0,0.0,46,0.00,,,0.00,weatherlink.com 1.10,2013-02-10 17:20:00,
2013-02-10 12:35:00,31.4,12.0,30.40,West,263,0.0,0.0,45,0.00,,,0.00,weatherlink.com 1.10,2013-02-10 17:35:00,
2013-02-10 12:50:00,31.8,15.0,30.39,NW,326,0.0,0.0,51,0.00,,,0.00,weatherlink.com 1.10,2013-02-10 17:50:00,
2013-02-10 13:05:00,32.5,15.0,30.38,NW,319,0.0,0.0,49,0.00,,,0.00,weatherlink.com 1.10,2013-02-10 18:05:00,
2013-02-10 13:20:00,33.0,18.0,30.37,WNW,295,0.0,0.0,54,0.00,,,0.00,weatherlink.com 1.10,2013-02-10 18:20:00,
2013-02-10 13:35:00,33.4,17.0,30.37,WNW,291,0.0,0.0,52,0.00,,,0.00,weatherlink.com 1.10,2013-02-10 18:35:00,
2013-02-10 13:50:00,33.9,17.0,30.37,WNW,290,0.0,1.0,50,0.00,,,0.00,weatherlink.com 1.10,2013-02-10 18:50:00,
2013-02-10 14:05:00,34.5,17.0,30.37,NNW,338,0.0,1.0,49,0.00,,,0.00,weatherlink.com 1.10,2013-02-10 19:05:00,
2013-02-10 14:21:00,34.5,19.0,30.37,WNW,285,3.0,6.0,54,0.01,,,0.01,weatherlink.com 1.10,2013-02-10 19:21:00,
2013-02-10 14:35:00,33.3,19.0,30.37,NW,315,4.0,6.0,57,0.01,,,0.01,weatherlink.com 1.10,2013-02-10 19:35:00,
2013-02-10 14:50:00,32.7,19.0,30.37,NW,309,4.0,8.0,57,0.01,,,0.01,weatherlink.com 1.10,2013-02-10 19:50:00,
2013-02-10 15:05:00,32.9,19.0,30.37,NW,316,3.0,7.0,58,0.00,,,0.01,weatherlink.com 1.10,2013-02-10 20:05:00,
2013-02-10 15:21:00,32.5,20.0,30.38,WNW,302,4.0,9.0,61,0.00,,,0.01,weatherlink.com 1.10,2013-02-10 20:21:00,
2013-02-10 15:35:00,32.5,20.0,30.39,NNW,332,3.0,8.0,61,0.00,,,0.01,weatherlink.com 1.10,2013-02-10 20:35:00,
2013-02-10 15:50:00,32.5,20.0,30.38,NW,311,2.0,10.0,61,0.00,,,0.01,weatherlink.com 1.10,2013-02-10 20:50:00,
2013-02-10 16:05:00,32.2,21.0,30.36,NW,312,3.0,6.0,63,0.00,,,0.01,weatherlink.com 1.10,2013-02-10 21:05:00,
2013-02-10 16:22:00,31.6,21.0,30.36,NW,304,2.0,6.0,65,0.00,,,0.01,weatherlink.com 1.10,2013-02-10 21:22:00,
2013-02-10 16:35:00,31.0,22.0,30.36,NW,311,2.0,4.0,68,0.00,,,0.01,weatherlink.com 1.10,2013-02-10 21:35:00,
2013-02-10 16:50:00,30.7,21.0,30.36,NW,312,4.0,7.0,68,0.00,,,0.01,weatherlink.com 1.10,2013-02-10 21:50:00,
2013-02-10 17:05:00,29.8,21.0,30.37,NW,317,2.0,4.0,70,0.00,,,0.01,weatherlink.com 1.10,2013-02-10 22:05:00,
2013-02-10 17:22:00,29.7,21.0,30.37,NW,311,2.0,4.0,70,0.00,,,0.01,weatherlink.com 1.10,2013-02-10 22:22:00,
2013-02-10 17:35:00,29.7,21.0,30.37,NW,311,1.0,4.0,71,0.00,,,0.01,weatherlink.com 1.10,2013-02-10 22:35:00,
2013-02-10 17:50:00,29.0,21.0,30.37,NW,304,1.0,2.0,72,0.00,,,0.01,weatherlink.com 1.10,2013-02-10 22:50:00,
2013-02-10 18:05:00,29.2,22.0,30.37,NW,307,1.0,4.0,74,0.00,,,0.01,weatherlink.com 1.10,2013-02-10 23:05:00,
2013-02-10 18:22:00,28.9,22.0,30.37,WNW,288,0.0,4.0,74,0.00,,,0.01,weatherlink.com 1.10,2013-02-10 23:22:00,
2013-02-10 18:35:00,29.1,22.0,30.37,NW,316,1.0,3.0,75,0.00,,,0.01,weatherlink.com 1.10,2013-02-10 23:35:00,
2013-02-10 18:50:00,29.1,22.0,30.37,NW,307,1.0,2.0,75,0.00,,,0.01,weatherlink.com 1.10,2013-02-10 23:50:00,
2013-02-10 19:05:00,29.6,23.0,30.37,WNW,293,0.0,4.0,76,0.00,,,0.01,weatherlink.com 1.10,2013-02-11 00:05:00,
2013-02-10 19:23:00,28.6,22.0,30.37,NW,314,0.0,2.0,77,0.00,,,0.01,weatherlink.com 1.10,2013-02-11 00:23:00,
2013-02-10 19:35:00,29.2,24.0,30.38,WNW,300,2.0,3.0,80,0.00,,,0.01,weatherlink.com 1.10,2013-02-11 00:35:00,
2013-02-10 19:50:00,29.2,23.0,30.38,NNW,343,0.0,3.0,79,0.00,,,0.00,weatherlink.com 1.10,2013-02-11 00:50:00,
2013-02-10 20:05:00,29.2,24.0,30.38,NW,304,1.0,3.0,80,0.00,,,0.00,weatherlink.com 1.10,2013-02-11 01:05:00,
2013-02-10 20:21:00,28.5,24.0,30.38,WNW,299,0.0,2.0,82,0.00,,,0.00,weatherlink.com 1.10,2013-02-11 01:21:00,
2013-02-10 20:36:00,28.2,24.0,30.38,WNW,300,0.0,1.0,83,0.00,,,0.00,weatherlink.com 1.10,2013-02-11 01:36:00,
2013-02-10 20:51:00,28.1,24.0,30.38,WNW,300,0.0,0.0,84,0.00,,,0.00,weatherlink.com 1.10,2013-02-11 01:51:00,
2013-02-10 21:06:00,28.0,24.0,30.39,WNW,300,0.0,0.0,85,0.00,,,0.00,weatherlink.com 1.10,2013-02-11 02:06:00,
2013-02-10 21:21:00,27.5,24.0,30.38,WNW,300,0.0,0.0,85,0.00,,,0.00,weatherlink.com 1.10,2013-02-11 02:21:00,
2013-02-10 21:36:00,27.3,23.0,30.37,WNW,300,0.0,0.0,85,0.00,,,0.00,weatherlink.com 1.10,2013-02-11 02:36:00,
2013-02-10 21:51:00,27.1,23.0,30.36,WNW,300,0.0,0.0,85,0.00,,,0.00,weatherlink.com 1.10,2013-02-11 02:51:00,
2013-02-10 22:06:00,27.0,23.0,30.36,North,9,0.0,1.0,85,0.00,,,0.00,weatherlink.com 1.10,2013-02-11 03:06:00,
2013-02-10 22:21:00,27.3,23.0,30.36,NNE,19,0.0,1.0,85,0.00,,,0.00,weatherlink.com 1.10,2013-02-11 03:21:00,
2013-02-10 22:36:00,27.3,23.0,30.36,NE,41,0.0,1.0,83,0.00,,,0.00,weatherlink.com 1.10,2013-02-11 03:36:00,
2013-02-10 22:51:00,27.7,23.0,30.37,NE,41,0.0,0.0,82,0.00,,,0.00,weatherlink.com 1.10,2013-02-11 03:51:00,
2013-02-10 23:06:00,27.8,23.0,30.37,NE,41,0.0,1.0,82,0.00,,,0.00,weatherlink.com 1.10,2013-02-11 04:06:00,
2013-02-10 23:21:00,27.9,23.0,30.37,NE,41,0.0,1.0,82,0.00,,,0.00,weatherlink.com 1.10,2013-02-11 04:21:00,
2013-02-10 23:36:00,28.2,23.0,30.35,NE,41,0.0,0.0,80,0.00,,,0.00,weatherlink.com 1.10,2013-02-11 04:36:00,
2013-02-10 23:51:00,28.6,23.0,30.36,NE,41,0.0,0.0,79,0.00,,,0.00,weatherlink.com 1.10,2013-02-11 04:51:00,